createdAt,value
2019-02-26T00:01:39.527Z,28.77
2019-02-26T00:04:10.758Z,28.77
2019-02-26T00:09:18.168Z,27.13
2019-02-26T00:11:47.146Z,28.45
2019-02-26T00:14:20.374Z,27.52
2019-02-26T00:16:51.376Z,27.73
2019-02-26T00:21:54.356Z,25.92
2019-02-26T00:24:25.633Z,26.00
2019-02-26T00:26:58.507Z,26.65
2019-02-26T00:29:32.034Z,26.60
2019-02-26T00:32:03.153Z,26.05
2019-02-26T00:34:34.665Z,25.35
2019-02-26T00:37:08.485Z,26.70
2019-02-26T00:39:39.658Z,25.23
2019-02-26T00:42:12.640Z,26.70
2019-02-26T00:44:43.893Z,24.95
2019-02-26T00:47:15.439Z,24.27
2019-02-26T00:49:48.403Z,26.05
2019-02-26T00:52:21.413Z,25.43
2019-02-26T00:54:53.611Z,24.40
2019-02-26T00:57:27.325Z,24.23
2019-02-26T01:00:00.719Z,23.67
2019-02-26T01:02:32.737Z,24.05
2019-02-26T01:05:06.306Z,24.60
2019-02-26T01:07:38.504Z,23.83
2019-02-26T01:12:43.360Z,22.65
2019-02-26T01:15:16.547Z,24.65
2019-02-26T01:17:47.682Z,23.27
2019-02-26T01:22:51.201Z,22.40
2019-02-26T01:25:22.922Z,23.27
2019-02-26T01:27:56.269Z,21.12
2019-02-26T01:30:29.404Z,21.77
2019-02-26T01:33:03.385Z,23.12
2019-02-26T01:35:35.590Z,22.75
2019-02-26T01:38:07.379Z,22.07
2019-02-26T01:43:10.894Z,22.05
2019-02-26T01:45:44.007Z,23.22
2019-02-26T01:48:18.386Z,21.82
2019-02-26T01:50:49.037Z,22.70
2019-02-26T01:53:21.470Z,21.48
2019-02-26T01:55:53.360Z,21.57
2019-02-26T01:58:24.817Z,20.35
2019-02-26T02:00:57.525Z,20.52
2019-02-26T02:06:01.517Z,21.20
2019-02-26T02:11:04.823Z,19.73
2019-02-26T02:13:38.508Z,19.07
2019-02-26T02:16:09.044Z,19.73
2019-02-26T02:18:43.930Z,20.05
2019-02-26T02:21:14.625Z,18.87
2019-02-26T02:23:47.061Z,18.45
2019-02-26T02:26:18.956Z,20.20
2019-02-26T02:28:50.433Z,19.70
2019-02-26T02:33:54.131Z,17.52
2019-02-26T02:36:26.464Z,17.57
2019-02-26T02:38:57.855Z,18.65
2019-02-26T02:41:29.093Z,17.40
2019-02-26T02:44:00.341Z,16.75
2019-02-26T02:46:31.541Z,18.25
2019-02-26T02:49:04.732Z,16.60
2019-02-26T02:51:37.158Z,15.68
2019-02-26T02:54:12.183Z,15.83
2019-02-26T02:56:44.383Z,14.68
2019-02-26T02:59:16.549Z,14.95
2019-02-26T03:01:51.325Z,14.38
2019-02-26T03:04:22.177Z,14.47
2019-02-26T03:06:55.584Z,14.83
2019-02-26T03:09:27.536Z,13.80
2019-02-26T03:11:59.092Z,13.45
2019-02-26T03:14:33.051Z,14.60
2019-02-26T03:17:05.655Z,13.68
2019-02-26T03:19:38.491Z,13.22
2019-02-26T03:22:12.686Z,13.00
2019-02-26T03:24:43.306Z,13.22
2019-02-26T03:27:14.444Z,13.72
2019-02-26T03:29:47.225Z,12.10
2019-02-26T03:32:18.987Z,12.90
2019-02-26T03:34:50.539Z,12.95
2019-02-26T03:39:55.235Z,13.08
2019-02-26T03:42:27.345Z,12.10
2019-02-26T03:47:31.173Z,12.00
2019-02-26T03:50:02.310Z,12.13
2019-02-26T03:55:08.884Z,11.30
2019-02-26T03:57:43.638Z,11.35
2019-02-26T04:00:19.910Z,11.60
2019-02-26T04:02:52.138Z,10.95
2019-02-26T04:05:25.140Z,10.18
2019-02-26T04:07:58.945Z,10.08
2019-02-26T04:10:29.987Z,10.72
2019-02-26T04:13:01.539Z,11.80
2019-02-26T04:15:35.649Z,10.38
2019-02-26T04:18:05.569Z,9.58
2019-02-26T04:23:08.956Z,10.00
2019-02-26T04:26:15.602Z,9.58
2019-02-26T04:28:47.926Z,10.18
2019-02-26T04:31:31.356Z,10.45
2019-02-26T04:34:08.456Z,9.18
2019-02-26T04:37:04.655Z,9.43
2019-02-26T04:39:50.252Z,9.50
2019-02-26T04:42:35.225Z,11.48
2019-02-26T04:45:13.016Z,8.90
2019-02-26T04:47:56.987Z,9.38
2019-02-26T04:50:28.894Z,10.63
2019-02-26T04:53:04.436Z,10.32
2019-02-26T04:55:36.087Z,10.78
2019-02-26T04:58:05.830Z,9.63
2019-02-26T05:00:38.666Z,9.40
2019-02-26T05:03:11.860Z,9.65
2019-02-26T05:05:43.050Z,9.68
2019-02-26T05:08:14.810Z,9.43
2019-02-26T05:10:49.843Z,10.58
2019-02-26T05:13:21.984Z,9.95
2019-02-26T05:15:53.574Z,10.58
2019-02-26T05:20:59.193Z,10.48
2019-02-26T05:23:33.014Z,9.55
2019-02-26T05:28:41.813Z,10.68
2019-02-26T05:31:15.212Z,12.25
2019-02-26T05:33:49.572Z,11.12
2019-02-26T05:36:20.215Z,12.33
2019-02-26T05:38:54.053Z,9.58
2019-02-26T05:41:24.234Z,9.30
2019-02-26T05:43:58.366Z,9.10
2019-02-26T05:46:29.592Z,8.95
2019-02-26T05:49:02.906Z,10.20
2019-02-26T05:51:36.008Z,9.90
2019-02-26T05:54:08.994Z,10.05
2019-02-26T05:56:43.373Z,9.78
2019-02-26T05:59:15.475Z,10.35
2019-02-26T06:01:49.459Z,10.32
2019-02-26T06:04:20.811Z,9.90
2019-02-26T06:06:55.504Z,13.95
2019-02-26T06:09:27.976Z,10.45
2019-02-26T06:11:58.746Z,11.03
2019-02-26T06:14:32.756Z,10.10
2019-02-26T06:17:03.493Z,12.88
2019-02-26T06:22:11.600Z,9.75
2019-02-26T06:24:41.929Z,9.25
2019-02-26T06:27:15.994Z,8.98
2019-02-26T06:29:46.509Z,9.80
2019-02-26T06:32:18.021Z,9.73
2019-02-26T06:34:49.169Z,10.00
2019-02-26T06:39:55.665Z,9.48
2019-02-26T06:42:30.671Z,10.43
2019-02-26T06:45:03.416Z,10.43
2019-02-26T06:47:34.196Z,12.58
2019-02-26T06:50:10.543Z,10.88
2019-02-26T06:52:43.011Z,10.08
2019-02-26T06:55:15.923Z,10.72
2019-02-26T07:00:22.291Z,9.00
2019-02-26T07:02:52.864Z,10.00
2019-02-26T07:05:24.649Z,11.63
2019-02-26T07:07:57.047Z,12.13
2019-02-26T07:10:31.410Z,10.80
2019-02-26T07:13:04.307Z,10.88
2019-02-26T07:15:35.520Z,10.20
2019-02-26T07:18:09.485Z,11.15
2019-02-26T07:20:46.520Z,10.65
2019-02-26T07:23:15.525Z,10.25
2019-02-26T07:25:46.847Z,15.93
2019-02-26T07:30:50.558Z,9.60
2019-02-26T07:35:54.409Z,10.03
2019-02-26T07:38:27.567Z,9.88
2019-02-26T07:40:59.574Z,10.38
2019-02-26T07:43:31.701Z,10.88
2019-02-26T07:46:03.053Z,10.95
2019-02-26T07:48:34.610Z,11.68
2019-02-26T07:53:36.992Z,10.30
2019-02-26T07:56:08.740Z,11.65
2019-02-26T07:58:41.210Z,10.68
2019-02-26T08:01:13.393Z,11.35
2019-02-26T08:03:46.974Z,11.30
2019-02-26T08:06:18.852Z,10.63
2019-02-26T08:08:50.098Z,11.12
2019-02-26T08:11:21.648Z,11.83
2019-02-26T08:13:54.388Z,10.95
2019-02-26T08:16:27.684Z,11.00
2019-02-26T08:19:01.414Z,11.43
2019-02-26T08:21:32.772Z,12.55
2019-02-26T08:24:04.945Z,12.95
2019-02-26T08:26:38.122Z,12.35
2019-02-26T08:29:11.900Z,12.33
2019-02-26T08:31:46.696Z,9.58
2019-02-26T08:34:15.874Z,10.50
2019-02-26T08:39:18.146Z,11.33
2019-02-26T08:44:30.273Z,11.65
2019-02-26T08:47:06.169Z,11.65
2019-02-26T08:49:35.944Z,11.88
2019-02-26T08:52:08.098Z,10.65
2019-02-26T08:57:11.979Z,9.75
2019-02-26T08:59:47.286Z,9.60
2019-02-26T09:02:18.956Z,10.38
2019-02-26T09:04:50.680Z,10.60
2019-02-26T09:07:23.810Z,10.60
2019-02-26T09:09:57.459Z,11.38
2019-02-26T09:12:28.194Z,12.98
2019-02-26T09:14:59.752Z,13.95
2019-02-26T09:20:09.307Z,13.72
2019-02-26T09:22:36.893Z,14.98
2019-02-26T09:25:09.216Z,13.08
2019-02-26T09:27:43.067Z,14.07
2019-02-26T09:30:16.182Z,13.72
2019-02-26T09:32:47.480Z,12.45
2019-02-26T09:35:24.681Z,11.65
2019-02-26T09:37:55.513Z,12.15
2019-02-26T09:40:28.866Z,13.62
2019-02-26T09:43:00.114Z,14.30
2019-02-26T09:45:31.481Z,12.50
2019-02-26T09:50:33.296Z,21.82
2019-02-26T09:55:35.648Z,14.73
2019-02-26T10:00:37.751Z,16.35
2019-02-26T10:03:11.073Z,13.15
2019-02-26T10:05:42.986Z,11.93
2019-02-26T10:08:14.639Z,12.60
2019-02-26T10:10:45.886Z,14.13
2019-02-26T10:13:18.280Z,15.53
2019-02-26T10:15:51.146Z,15.72
2019-02-26T10:18:23.841Z,14.15
2019-02-26T10:20:55.676Z,12.68
2019-02-26T10:23:29.050Z,14.05
2019-02-26T10:26:01.062Z,19.50
2019-02-26T10:28:37.329Z,20.08
2019-02-26T10:31:09.703Z,23.57
2019-02-26T10:33:43.171Z,16.17
2019-02-26T10:36:16.520Z,12.47
2019-02-26T10:38:50.330Z,12.10
2019-02-26T10:41:21.615Z,12.85
2019-02-26T10:43:53.267Z,12.88
2019-02-26T10:46:24.623Z,14.40
2019-02-26T10:48:56.281Z,12.53
2019-02-26T10:51:27.622Z,13.68
2019-02-26T10:54:00.006Z,14.60
2019-02-26T10:56:36.845Z,20.35
2019-02-26T10:59:08.660Z,12.13
2019-02-26T11:01:39.316Z,12.28
2019-02-26T11:04:11.017Z,10.85
2019-02-26T11:09:17.545Z,9.33
2019-02-26T11:11:47.019Z,9.00
2019-02-26T11:14:19.447Z,9.50
2019-02-26T11:16:50.747Z,13.75
2019-02-26T11:21:55.968Z,12.53
2019-02-26T11:24:28.198Z,11.57
2019-02-26T11:26:59.691Z,11.70
2019-02-26T11:29:34.063Z,11.35
2019-02-26T11:32:07.809Z,11.48
2019-02-26T11:34:39.368Z,13.53
2019-02-26T11:37:10.926Z,13.10
2019-02-26T11:39:42.270Z,12.30
2019-02-26T11:42:15.857Z,12.30
2019-02-26T11:44:46.708Z,12.80
2019-02-26T11:49:50.448Z,13.45
2019-02-26T11:54:52.710Z,13.33
2019-02-26T11:57:24.470Z,14.20
2019-02-26T12:02:33.387Z,15.35
2019-02-26T12:05:02.882Z,16.52
2019-02-26T12:07:35.905Z,17.75
2019-02-26T12:10:14.750Z,17.52
2019-02-26T12:12:48.323Z,19.48
2019-02-26T12:15:19.059Z,19.65
2019-02-26T12:17:51.749Z,16.40
2019-02-26T12:20:24.310Z,16.00
2019-02-26T12:22:55.816Z,15.98
2019-02-26T12:25:27.108Z,14.30
2019-02-26T12:28:00.174Z,15.50
2019-02-26T12:30:34.479Z,13.90
2019-02-26T12:33:07.672Z,14.78
2019-02-26T12:35:40.618Z,16.27
2019-02-26T12:38:18.248Z,14.65
2019-02-26T12:40:47.164Z,14.20
2019-02-26T12:43:19.288Z,13.28
2019-02-26T12:45:52.016Z,16.95
2019-02-26T12:48:23.480Z,14.65
2019-02-26T12:50:55.641Z,15.23
2019-02-26T12:53:29.035Z,14.95
2019-02-26T12:56:09.014Z,15.90
2019-02-26T12:58:41.111Z,17.07
2019-02-26T13:01:13.365Z,19.02
2019-02-26T13:03:47.282Z,19.32
2019-02-26T13:06:19.479Z,16.75
2019-02-26T13:08:51.360Z,18.10
2019-02-26T13:11:24.880Z,19.70
2019-02-26T13:13:56.222Z,19.32
2019-02-26T13:19:01.562Z,20.55
2019-02-26T13:21:32.401Z,21.50
2019-02-26T13:26:37.037Z,22.60
2019-02-26T13:29:09.117Z,23.05
2019-02-26T13:34:14.225Z,23.00
2019-02-26T13:36:48.985Z,26.75
2019-02-26T13:39:26.120Z,22.90
2019-02-26T13:41:58.475Z,21.00
2019-02-26T13:44:25.582Z,19.25
2019-02-26T13:46:57.348Z,18.82
2019-02-26T13:49:28.583Z,17.45
2019-02-26T13:52:00.141Z,14.80
2019-02-26T16:12:03.698Z,13.62
2019-02-26T16:14:35.264Z,11.97
2019-02-26T16:17:07.079Z,13.10
2019-02-26T16:19:38.976Z,14.58
2019-02-26T16:22:10.638Z,11.70
2019-02-26T16:24:42.383Z,13.00
2019-02-26T16:29:46.135Z,13.90
2019-02-26T16:32:20.417Z,13.13
2019-02-26T16:34:53.509Z,12.80
2019-02-26T16:37:29.567Z,14.10
2019-02-26T16:40:02.654Z,14.00
2019-02-26T16:42:35.231Z,13.48
2019-02-26T16:45:09.754Z,13.48
2019-02-26T16:47:42.604Z,13.88
2019-02-26T16:50:19.823Z,14.58
2019-02-26T16:52:51.485Z,13.50
2019-02-26T16:57:53.249Z,13.50
2019-02-26T17:00:32.608Z,14.60
2019-02-26T17:03:04.572Z,14.03
2019-02-26T17:05:35.907Z,14.38
2019-02-26T17:08:07.473Z,14.47
2019-02-26T17:10:38.698Z,16.50
2019-02-26T17:13:12.660Z,14.47
2019-02-26T17:15:43.846Z,13.78
2019-02-26T17:20:49.934Z,12.90
2019-02-26T17:23:21.473Z,12.68
2019-02-26T17:28:25.192Z,13.60
2019-02-26T17:33:29.221Z,14.35
2019-02-26T17:36:02.007Z,12.93
2019-02-26T17:38:33.967Z,15.00
2019-02-26T17:41:05.630Z,15.30
2019-02-26T17:43:39.344Z,15.30
2019-02-26T17:46:10.997Z,14.43
2019-02-26T17:51:18.761Z,15.40
2019-02-26T17:53:49.787Z,15.15
2019-02-26T17:56:20.972Z,15.35
2019-02-26T17:58:52.526Z,15.28
2019-02-26T18:01:24.225Z,14.20
2019-02-26T18:03:58.719Z,13.08
2019-02-26T18:06:30.161Z,14.13
2019-02-26T18:09:01.755Z,13.90
2019-02-26T18:11:36.541Z,14.35
2019-02-26T18:14:09.631Z,13.95
2019-02-26T18:16:41.686Z,12.85
2019-02-26T18:19:16.206Z,12.93
2019-02-26T18:24:19.007Z,12.63
2019-02-26T18:26:51.903Z,12.88
2019-02-26T18:29:25.658Z,12.88
2019-02-26T18:31:57.350Z,12.82
2019-02-26T18:34:29.004Z,13.50
2019-02-26T18:39:32.495Z,12.47
2019-02-26T18:42:07.597Z,14.58
2019-02-26T18:44:36.956Z,13.80
2019-02-26T18:49:40.064Z,13.13
2019-02-26T18:54:48.906Z,13.10
2019-02-26T18:57:20.354Z,13.55
2019-02-26T18:59:53.599Z,13.43
2019-02-26T19:02:25.269Z,12.47
2019-02-26T19:04:57.528Z,12.03
2019-02-26T19:07:33.798Z,12.73
2019-02-26T19:10:08.998Z,12.10
2019-02-26T19:12:41.369Z,12.63
2019-02-26T19:15:19.774Z,12.23
2019-02-26T19:17:53.288Z,13.68
2019-02-26T19:20:29.557Z,12.93
2019-02-26T19:23:02.092Z,12.03
2019-02-26T19:25:33.658Z,12.03
2019-02-26T19:28:05.510Z,12.25
2019-02-26T19:30:38.806Z,12.07
2019-02-26T19:33:10.448Z,13.00
2019-02-26T19:35:42.008Z,12.75
2019-02-26T19:40:50.209Z,11.48
2019-02-26T19:43:23.781Z,13.18
2019-02-26T19:45:55.692Z,12.18
2019-02-26T19:48:30.390Z,12.45
2019-02-26T19:50:59.922Z,12.40
2019-02-26T19:56:04.184Z,11.95
2019-02-26T19:58:36.008Z,11.93
2019-02-26T20:01:07.662Z,11.80
2019-02-26T20:03:40.329Z,12.35
2019-02-26T20:06:12.403Z,12.47
2019-02-26T20:08:43.886Z,13.40
2019-02-26T20:11:15.729Z,12.63
2019-02-26T20:13:47.586Z,11.70
2019-02-26T20:16:19.143Z,11.45
2019-02-26T20:18:52.188Z,11.83
2019-02-26T20:21:23.668Z,11.97
2019-02-26T20:23:55.328Z,10.82
2019-02-26T20:28:56.887Z,9.98
2019-02-26T20:34:00.093Z,9.78
2019-02-26T20:36:33.696Z,10.70
2019-02-26T20:39:07.992Z,10.80
2019-02-26T20:41:39.972Z,9.55
2019-02-26T20:44:11.229Z,11.08
2019-02-26T20:46:42.781Z,10.40
2019-02-26T20:49:13.920Z,9.88
2019-02-26T20:54:17.171Z,10.13
2019-02-26T20:56:48.374Z,10.30
2019-02-26T21:01:50.661Z,9.80
2019-02-26T21:04:21.801Z,10.70
2019-02-26T21:09:23.884Z,9.50
2019-02-26T21:11:55.836Z,10.72
2019-02-26T21:14:27.600Z,10.43
2019-02-26T21:19:29.371Z,15.20
2019-02-26T21:22:01.028Z,10.05
2019-02-26T21:24:34.666Z,9.55
2019-02-26T21:27:05.264Z,10.05
2019-02-26T21:29:38.929Z,10.23
2019-02-26T21:32:09.805Z,9.20
2019-02-26T21:34:42.887Z,9.08
2019-02-26T21:37:14.137Z,8.70
2019-02-26T21:42:16.116Z,8.68
2019-02-26T21:44:47.663Z,8.25
2019-02-26T21:47:20.284Z,8.65
2019-02-26T21:49:53.558Z,8.45
2019-02-26T21:52:25.705Z,9.08
2019-02-26T21:54:58.192Z,8.85
2019-02-26T21:57:29.937Z,7.83
2019-02-26T22:00:05.130Z,7.90
2019-02-26T22:02:36.717Z,7.60
2019-02-26T22:05:09.796Z,8.50
2019-02-26T22:07:40.956Z,7.50
2019-02-26T22:10:14.973Z,8.03
2019-02-26T22:12:46.010Z,7.15
2019-02-26T22:15:18.171Z,7.78
2019-02-26T22:20:33.005Z,7.25
2019-02-26T22:22:54.873Z,7.00
2019-02-26T22:25:26.227Z,7.40
2019-02-26T22:27:57.368Z,6.55
2019-02-26T22:32:59.343Z,7.15
2019-02-26T22:38:01.222Z,7.05
2019-02-26T22:40:34.217Z,6.60
2019-02-26T22:43:05.285Z,7.40
2019-02-26T22:48:08.646Z,7.55
2019-02-26T22:50:39.906Z,7.15
2019-02-26T22:53:11.355Z,7.58
2019-02-26T22:58:13.028Z,7.75
2019-02-26T23:03:26.579Z,7.72
2019-02-26T23:05:59.023Z,7.45
2019-02-26T23:08:30.905Z,8.05
2019-02-26T23:11:02.379Z,7.60
2019-02-26T23:13:34.201Z,6.90
2019-02-26T23:16:05.774Z,7.20
2019-02-26T23:18:37.435Z,5.92
2019-02-26T23:23:39.303Z,5.60
2019-02-26T23:26:10.651Z,6.67
2019-02-26T23:28:42.409Z,5.30
2019-02-26T23:31:13.964Z,6.10
2019-02-26T23:33:48.161Z,6.10
2019-02-26T23:36:17.885Z,6.72
2019-02-26T23:38:49.349Z,6.30
2019-02-26T23:41:20.474Z,6.70
2019-02-26T23:43:51.825Z,6.95
2019-02-26T23:48:53.599Z,6.20
2019-02-26T23:51:24.823Z,5.90
2019-02-26T23:53:56.396Z,6.12
2019-02-26T23:56:28.097Z,6.05
2019-02-26T23:59:04.120Z,5.78
